Relevés horaires Semmerzake (Belgique)


Relevés horaires à Semmerzake - Vendredi 23 Juill. 2021
Heure UTC1 Température [°C] Vent [km/h] Hum. [%] Pres.4 [hPa] Visi. [Km] Nébu. [octa] Préc.5 [mm] Cond.
2m. Res. Ros. Dir.2 Vit. Moy. Raf.3
23:00 18.3 18.3 13.8 NE 3.7 -- 11.1 75 1012.2(0.0/3h) 18 -- -- --
22:00 18.9 18.9 13.8 ENE 5.6 -- 9.3 72 1011.7(-0.2/3h) 20 -- -- --
21:00 19.3 19.3 13.5 NE 3.7 -- 11.1 69 1012.2(-0.6/3h) 19 -- -- --
20:00 20.4 20.4 12.2 ENE 3.7 -- 9.3 59 1012.2(-1.1/3h) 20 -- -- --
19:00 21.7 21.7 11.8 NE 5.6 -- 11.1 53 1012.1(-1.9/3h) 20 -- -- --
18:00 23.2 23.2 11.1 ENE 5.6 -- 13.0 46 1012.7(-1.7/3h) 20 -- -- --
17:00 23.3 23.3 11.0 ENE 5.6 -- 13.0 46 1013.2(-1.7/3h) 20 -- -- --
16:00 24.1 24.1 11.8 ENE 5.6 -- 11.1 46 1014.1(-1.7/3h) 20 -- -- --
15:00 22.8 22.8 10.9 ENE 5.6 -- 13.0 47 1014.5(-1.8/3h) 20 -- -- --
14:00 24.2 24.2 10.9 E 7.4 -- 11.1 43 1015(-2.1/3h) 20 -- -- --
13:00 23.0 23.0 11.2 NE 7.4 -- 13.0 47 1015.7(-2.1/3h) 20 -- -- --
12:00 21.9 21.9 11.0 ENE 5.6 -- 13.0 50 1016.5(-1.9/3h) 18 -- -- --
11:00 21.1 21.1 12.0 NE 5.6 -- 13.0 56 1017.3(-1.7/3h) 18 -- -- --
10:00 20.8 20.8 12.6 NE 5.6 -- 11.1 59 1018(-1.0/3h) 14 -- -- --
09:00 19.3 19.3 12.3 ENE 7.4 -- 11.1 64 1018.3(-0.9/3h) 20 -- -- --
08:00 17.9 17.9 12.1 ENE 5.6 -- 11.1 69 1019.1(-0.3/3h) 20 -- -- --
07:00 16.0 16.0 12.4 ENE 5.6 -- 9.3 79 1019.1(-0.2/3h) 16 -- -- --
06:00 14.3 14.3 12.1 NE 3.7 -- 7.4 87 1019.5(-0.2/3h) 14 -- -- --
05:00 12.8 12.8 11.5 NNO 1.9 -- 7.4 92 1019.6(-0.6/3h) 10 -- -- --
04:00 12.6 12.6 11.0 NE 3.7 -- 7.4 90 1019.3(-1.0/3h) 12 -- -- --
03:00 12.9 12.9 11.4 NE 3.7 -- 7.4 91 1019.7(-0.8/3h) 10 -- -- --
02:00 13.7 13.7 11.6 NE 3.7 -- 5.6 87 1020.2(-0.6/3h) 13 -- -- --
01:00 14.6 14.6 12.8 NE 3.7 -- 7.4 89 1020.3(-0.3/3h) 13 -- -- --
00:00 15.0 15.0 13.4 NNO 3.7 -- 11.1 90 1020.6(-0.2/3h) 12 -- -- --

1 Coordinated Universal Time. Actuellement il est 22:00 locale et 20:00 UTC.

2 Le vent souffle depuis la direction indiquée vers la direction oposée.

3 Les rafales max. sont disponible 40 min après l'heure du relevé.

4 Pour les stations d'altitude (plus de 600m) le géopotentiel du niveau le plus proche de la pression obligatoire est indiqué.

5 Les stations disposant d'un diffuseur peuvent indiquer "trace". Cela signifie que des précipitations ont touchés le sol mais que la quantité est inférieure à 0.1 mm.

Récapitulatif de la journée
Température [°C] Vent [km/h] Ensoleillement4 [h] Precipitations totale5 [mm] Pression [Hpa]
Min1 Max.2 Moy.3 Max. Min Max.
12.5 24.5 0 13.0 0 h 0 min 0 1011.7 1020.6

1 Température minimale relevée entre 18:00 UTC la veille et 18:00 UTC le jour donné.

2 Température maximale relevée entre 06:00 UTC le jour donné et 06:00 UTC le lendemain.

3 Vent moyen de la journée basé sur les relevés horaires.

4 Ensoleillement en heures relevé entre 06:00 UTC la veille et 06:00 UTC le jour donné.

5 Précipitations totales tombées entre 06:00 UTC la jour donné et 06:00 UTC le lendemain.

Graphiques horaires